createdAt,value
2022-08-03T00:02:25.807Z,28.40
2022-08-03T00:04:57.367Z,28.40
2022-08-03T00:07:28.520Z,28.40
2022-08-03T00:09:59.899Z,28.30
2022-08-03T00:12:31.194Z,28.50
2022-08-03T00:15:02.434Z,28.50
2022-08-03T00:17:52.740Z,28.70
2022-08-03T00:20:25.705Z,28.70
2022-08-03T00:22:57.140Z,28.90
2022-08-03T00:25:28.692Z,29.00
2022-08-03T00:28:00.391Z,29.00
2022-08-03T00:30:31.926Z,29.00
2022-08-03T00:33:04.549Z,29.10
2022-08-03T00:35:43.268Z,29.10
2022-08-03T00:38:22.812Z,29.10
2022-08-03T00:40:54.135Z,29.30
2022-08-03T00:43:29.245Z,29.30
2022-08-03T00:46:00.535Z,29.30
2022-08-03T00:48:33.680Z,29.50
2022-08-03T00:51:05.319Z,29.60
2022-08-03T00:53:38.359Z,29.60
2022-08-03T00:56:09.885Z,29.60
2022-08-03T00:58:41.570Z,29.70
2022-08-03T01:01:13.825Z,29.80
2022-08-03T01:03:45.384Z,29.90
2022-08-03T01:06:40.635Z,29.80
2022-08-03T01:09:22.195Z,29.80
2022-08-03T01:12:13.602Z,29.80
2022-08-03T01:15:03.000Z,29.90
2022-08-03T01:18:09.731Z,29.90
2022-08-03T01:20:46.514Z,29.90
2022-08-03T01:23:29.626Z,29.90
2022-08-03T01:26:12.888Z,29.90
2022-08-03T01:29:15.700Z,30.00
2022-08-03T01:32:58.848Z,30.10
2022-08-03T01:35:03.121Z,30.20
2022-08-03T01:37:43.985Z,30.30
2022-08-03T01:40:16.290Z,30.30
2022-08-03T01:42:49.869Z,30.40
2022-08-03T01:45:22.729Z,30.40
2022-08-03T01:47:55.445Z,30.50
2022-08-03T01:50:29.873Z,30.60
2022-08-03T01:53:01.979Z,30.70
2022-08-03T01:55:35.391Z,30.70
2022-08-03T01:58:09.432Z,30.80
2022-08-03T02:00:42.814Z,30.90
2022-08-03T02:03:15.999Z,31.00
2022-08-03T02:05:54.116Z,31.00
2022-08-03T02:08:37.850Z,31.10
2022-08-03T02:11:09.855Z,31.10
2022-08-03T02:13:41.590Z,31.30
2022-08-03T02:16:14.491Z,31.40
2022-08-03T02:18:47.760Z,31.50
2022-08-03T02:21:21.014Z,31.50
2022-08-03T02:26:59.161Z,31.60
2022-08-03T02:29:39.331Z,31.70
2022-08-03T02:32:19.313Z,31.70
2022-08-03T02:34:54.959Z,31.80
2022-08-03T02:37:32.907Z,31.80
2022-08-03T02:40:09.999Z,31.90
2022-08-03T02:42:42.230Z,32.00
2022-08-03T02:45:15.889Z,32.00
2022-08-03T02:50:36.745Z,32.10
2022-08-03T02:53:09.146Z,32.10
2022-08-03T02:55:45.653Z,32.30
2022-08-03T02:58:22.869Z,32.30
2022-08-03T03:00:55.741Z,32.40
2022-08-03T03:03:28.239Z,32.60
2022-08-03T03:06:05.693Z,32.50
2022-08-03T03:08:37.527Z,32.50
2022-08-03T03:11:11.804Z,32.60
2022-08-03T03:13:45.777Z,32.70
2022-08-03T03:16:18.175Z,32.70
2022-08-03T03:21:37.400Z,32.90
2022-08-03T03:24:10.092Z,33.00
2022-08-03T03:26:42.520Z,33.20
2022-08-03T03:29:14.063Z,33.20
2022-08-03T03:31:45.234Z,33.10
2022-08-03T03:34:17.254Z,33.20
2022-08-03T03:36:48.644Z,33.30
2022-08-03T03:39:22.648Z,33.50
2022-08-03T03:41:54.906Z,33.60
2022-08-03T03:44:32.767Z,33.70
2022-08-03T03:47:04.898Z,33.90
2022-08-03T03:49:36.693Z,34.10
2022-08-03T03:52:08.831Z,34.30
2022-08-03T03:54:44.534Z,34.30
2022-08-03T03:57:15.916Z,34.20
2022-08-03T03:59:47.056Z,34.50
2022-08-03T04:02:18.408Z,34.60
2022-08-03T04:05:07.714Z,34.60
2022-08-03T04:08:17.684Z,34.80
2022-08-03T04:11:02.042Z,35.00
2022-08-03T04:13:45.047Z,35.10
2022-08-03T04:16:20.687Z,34.80
2022-08-03T04:19:19.668Z,34.70
2022-08-03T04:21:57.478Z,34.50
2022-08-03T04:24:36.855Z,34.40
2022-08-03T04:27:16.290Z,34.40
2022-08-03T04:30:10.949Z,34.70
2022-08-03T04:32:45.947Z,34.90
2022-08-03T04:35:17.363Z,35.20
2022-08-03T04:37:54.079Z,35.50
2022-08-03T04:40:39.711Z,35.80
2022-08-03T04:43:13.696Z,36.10
2022-08-03T04:45:48.812Z,36.00
2022-08-03T04:48:21.578Z,35.50
2022-08-03T04:50:53.018Z,35.30
2022-08-03T04:53:24.220Z,35.50
2022-08-03T04:55:56.342Z,35.70
2022-08-03T04:58:32.575Z,35.90
2022-08-03T05:01:03.845Z,36.10
2022-08-03T05:03:35.102Z,36.00
2022-08-03T05:06:09.971Z,36.10
2022-08-03T05:08:46.915Z,35.70
2022-08-03T05:11:20.751Z,35.40
2022-08-03T05:13:51.997Z,34.80
2022-08-03T05:16:23.382Z,34.80
2022-08-03T05:18:54.696Z,35.10
2022-08-03T05:21:26.103Z,35.30
2022-08-03T05:24:17.297Z,35.60
2022-08-03T05:26:48.548Z,35.30
2022-08-03T05:29:20.482Z,35.00
2022-08-03T05:31:51.811Z,34.50
2022-08-03T05:34:42.939Z,34.40
2022-08-03T05:37:33.997Z,34.50
2022-08-03T05:40:08.272Z,34.80
2022-08-03T05:42:42.783Z,35.00
2022-08-03T05:45:17.313Z,35.30
2022-08-03T05:47:49.548Z,35.20
2022-08-03T05:50:22.190Z,35.20
2022-08-03T05:52:53.497Z,35.30
2022-08-03T05:55:24.766Z,35.30
2022-08-03T05:57:55.862Z,35.40
2022-08-03T06:00:27.990Z,35.60
2022-08-03T06:02:59.272Z,35.50
2022-08-03T06:05:32.216Z,35.90
2022-08-03T06:08:03.537Z,36.00
2022-08-03T06:10:37.864Z,35.90
2022-08-03T06:13:10.523Z,36.10
2022-08-03T06:15:41.965Z,36.20
2022-08-03T06:18:14.238Z,36.30
2022-08-03T06:20:47.067Z,36.20
2022-08-03T06:23:20.838Z,36.10
2022-08-03T06:25:52.709Z,36.20
2022-08-03T06:28:51.492Z,36.40
2022-08-03T06:31:15.497Z,36.70
2022-08-03T06:34:30.460Z,36.90
2022-08-03T06:36:37.800Z,37.30
2022-08-03T06:39:09.144Z,37.00
2022-08-03T06:41:44.740Z,36.80
2022-08-03T06:44:16.285Z,36.80
2022-08-03T06:46:47.509Z,36.90
2022-08-03T06:49:18.964Z,36.70
2022-08-03T06:52:04.538Z,36.60
2022-08-03T06:57:27.321Z,35.70
2022-08-03T07:02:48.420Z,34.00
2022-08-03T07:05:24.498Z,33.20
2022-08-03T07:08:00.716Z,32.10
2022-08-03T07:10:33.446Z,31.20
2022-08-03T07:13:04.680Z,30.50
2022-08-03T07:15:55.499Z,30.20
2022-08-03T07:18:29.968Z,30.00
2022-08-03T07:21:01.803Z,29.90
2022-08-03T07:23:33.238Z,29.90
2022-08-03T07:26:04.502Z,30.00
2022-08-03T07:28:35.957Z,29.90
2022-08-03T07:31:10.061Z,29.60
2022-08-03T07:33:42.599Z,29.40
2022-08-03T07:36:14.003Z,29.40
2022-08-03T07:38:45.433Z,29.50
2022-08-03T07:41:40.238Z,29.50
2022-08-03T07:44:13.589Z,29.60
2022-08-03T07:47:04.706Z,29.60
2022-08-03T07:49:41.029Z,29.60
2022-08-03T07:52:30.698Z,29.30
2022-08-03T07:55:23.023Z,29.20
2022-08-03T07:58:13.758Z,29.20
2022-08-03T08:00:48.773Z,29.20
2022-08-03T08:03:20.512Z,29.30
2022-08-03T08:05:52.394Z,29.50
2022-08-03T08:08:25.188Z,29.50
2022-08-03T08:10:58.185Z,29.40
2022-08-03T08:13:50.544Z,29.50
2022-08-03T08:16:21.808Z,29.60
2022-08-03T08:18:52.997Z,29.60
2022-08-03T08:21:24.384Z,29.80
2022-08-03T08:23:58.670Z,29.80
2022-08-03T08:26:30.157Z,29.70
2022-08-03T08:29:02.560Z,29.80
2022-08-03T08:31:34.799Z,29.80
2022-08-03T08:34:07.143Z,29.90
2022-08-03T08:36:41.383Z,29.80
2022-08-03T08:39:12.694Z,29.80
2022-08-03T08:41:52.991Z,29.90
2022-08-03T08:44:24.754Z,30.00
2022-08-03T08:46:58.809Z,29.90
2022-08-03T08:49:31.443Z,29.90
2022-08-03T08:52:25.407Z,29.70
2022-08-03T08:55:20.310Z,29.60
2022-08-03T08:58:21.228Z,29.40
2022-08-03T09:00:53.687Z,29.30
2022-08-03T09:03:30.222Z,29.50
2022-08-03T09:06:03.908Z,29.40
2022-08-03T09:08:37.652Z,29.40
2022-08-03T09:12:00.513Z,29.40
2022-08-03T09:14:37.131Z,29.40
2022-08-03T09:17:17.457Z,29.30
2022-08-03T09:20:10.846Z,29.30
2022-08-03T09:23:01.115Z,29.30
2022-08-03T09:25:35.248Z,29.40
2022-08-03T09:29:01.491Z,29.30
2022-08-03T09:31:10.430Z,29.40
2022-08-03T09:33:51.456Z,29.30
2022-08-03T09:36:42.060Z,29.30
2022-08-03T09:39:41.770Z,29.20
2022-08-03T09:42:18.761Z,29.20
2022-08-03T09:44:55.542Z,29.30
2022-08-03T09:47:44.971Z,29.20
2022-08-03T09:50:17.126Z,29.20
2022-08-03T09:52:52.712Z,29.20
2022-08-03T09:56:33.373Z,29.20
2022-08-03T09:58:17.902Z,29.30
2022-08-03T10:01:01.342Z,29.20
2022-08-03T10:03:46.997Z,29.40
2022-08-03T10:07:11.053Z,29.30
2022-08-03T10:09:57.478Z,29.40
2022-08-03T10:12:29.224Z,29.40
2022-08-03T10:15:00.468Z,29.40
2022-08-03T10:17:31.559Z,29.40
2022-08-03T10:20:02.763Z,29.30
2022-08-03T10:22:36.949Z,29.20
2022-08-03T10:25:19.337Z,29.20
2022-08-03T10:27:53.371Z,29.10
2022-08-03T10:30:39.329Z,29.20
2022-08-03T10:33:51.150Z,29.20
2022-08-03T10:36:18.266Z,29.20
2022-08-03T10:38:56.635Z,29.10
2022-08-03T10:41:34.006Z,29.20
2022-08-03T10:44:21.439Z,29.20
2022-08-03T10:46:53.290Z,29.20
2022-08-03T10:52:31.675Z,29.30
2022-08-03T10:55:18.981Z,29.30
2022-08-03T10:57:58.894Z,29.20
2022-08-03T11:00:31.812Z,29.20
2022-08-03T11:03:15.934Z,29.30
2022-08-03T11:05:51.335Z,29.20
2022-08-03T11:08:32.694Z,29.20
2022-08-03T11:11:22.613Z,29.20
2022-08-03T11:14:01.146Z,29.30
2022-08-03T11:16:36.507Z,29.20
2022-08-03T11:19:13.105Z,29.20
2022-08-03T11:21:53.366Z,29.20
2022-08-03T11:24:42.440Z,29.20
2022-08-03T11:27:26.497Z,29.20
2022-08-03T11:30:01.909Z,29.20
2022-08-03T11:32:46.572Z,29.10
2022-08-03T11:35:37.461Z,29.20
2022-08-03T11:38:11.115Z,29.20
2022-08-03T11:40:49.835Z,29.10
2022-08-03T11:43:35.333Z,29.00
2022-08-03T11:46:28.737Z,29.00
2022-08-03T11:49:10.955Z,28.90
2022-08-03T11:51:42.549Z,28.90
2022-08-03T11:54:13.647Z,28.90
2022-08-03T11:56:53.349Z,28.90
2022-08-03T11:59:37.184Z,28.90
2022-08-03T12:02:18.295Z,28.80
2022-08-03T12:05:14.533Z,28.80
2022-08-03T12:08:03.311Z,28.80
2022-08-03T12:10:36.395Z,28.80
2022-08-03T12:14:43.925Z,28.80
2022-08-03T12:16:01.166Z,28.90
2022-08-03T12:18:32.539Z,28.60
2022-08-03T12:21:12.150Z,28.60
2022-08-03T12:23:43.341Z,28.60
2022-08-03T12:26:14.632Z,28.50
2022-08-03T12:28:52.231Z,28.50
2022-08-03T12:31:23.601Z,28.60
2022-08-03T12:34:34.512Z,28.60
2022-08-03T12:37:21.871Z,28.70
2022-08-03T12:40:02.330Z,28.60
2022-08-03T12:42:39.962Z,28.50
2022-08-03T12:45:25.573Z,28.50
2022-08-03T12:47:59.680Z,28.50
2022-08-03T12:50:33.479Z,28.50
2022-08-03T12:53:08.077Z,28.50
2022-08-03T12:55:57.521Z,28.40
2022-08-03T12:58:35.783Z,28.50
2022-08-03T13:01:10.802Z,28.60
2022-08-03T13:03:50.143Z,28.60
2022-08-03T13:06:28.773Z,28.60
2022-08-03T13:09:09.930Z,28.60
2022-08-03T13:11:55.391Z,28.60
2022-08-03T13:14:33.946Z,28.70
2022-08-03T13:17:05.965Z,28.80
2022-08-03T13:19:41.528Z,28.80
2022-08-03T13:22:25.040Z,28.60
2022-08-03T13:25:02.405Z,28.50
2022-08-03T13:28:04.292Z,28.50
2022-08-03T13:30:46.721Z,28.40
2022-08-03T13:33:18.389Z,28.40
2022-08-03T13:35:49.827Z,28.40
2022-08-03T13:38:27.014Z,28.30
2022-08-03T13:40:59.167Z,28.30
2022-08-03T13:43:31.126Z,28.40
2022-08-03T13:46:02.395Z,28.40
2022-08-03T13:48:37.145Z,28.30
2022-08-03T13:51:21.788Z,28.30
2022-08-03T13:54:03.165Z,28.30
2022-08-03T13:56:35.286Z,28.30
2022-08-03T13:59:07.724Z,28.20
2022-08-03T14:01:54.497Z,28.30
2022-08-03T14:04:27.491Z,28.20
2022-08-03T14:06:59.512Z,28.20
2022-08-03T14:09:32.926Z,28.20
2022-08-03T14:12:08.122Z,28.10
2022-08-03T14:14:40.817Z,28.00
2022-08-03T14:17:12.596Z,28.00
2022-08-03T14:19:53.301Z,28.00
2022-08-03T14:22:26.306Z,28.10
2022-08-03T14:24:59.738Z,28.10
2022-08-03T14:27:37.081Z,28.20
2022-08-03T14:30:13.031Z,28.20
2022-08-03T14:32:49.330Z,28.20
2022-08-03T14:35:21.961Z,28.30
2022-08-03T14:37:53.533Z,28.20
2022-08-03T14:40:25.813Z,28.30
2022-08-03T14:43:19.876Z,28.20
2022-08-03T14:45:55.474Z,28.20
2022-08-03T14:50:30.417Z,28.20
2022-08-03T14:51:41.072Z,28.10
2022-08-03T14:54:52.009Z,28.20
2022-08-03T14:57:23.660Z,28.30
2022-08-03T14:59:57.523Z,28.20
2022-08-03T15:02:40.939Z,28.30
2022-08-03T15:05:33.539Z,28.30
2022-08-03T15:08:09.311Z,28.30
2022-08-03T15:10:44.922Z,28.30
2022-08-03T15:13:18.272Z,28.30
2022-08-03T15:15:54.307Z,28.40
2022-08-03T15:21:47.015Z,28.30
2022-08-03T15:24:19.557Z,28.30
2022-08-03T15:26:52.050Z,28.20
2022-08-03T15:30:05.795Z,28.30
2022-08-03T15:32:15.955Z,28.30
2022-08-03T15:34:59.335Z,28.30
2022-08-03T15:37:51.149Z,28.30
2022-08-03T15:40:22.696Z,28.30
2022-08-03T15:42:56.094Z,28.30
2022-08-03T15:45:27.877Z,28.30
2022-08-03T15:48:08.448Z,28.30
2022-08-03T15:50:40.078Z,28.20
2022-08-03T15:53:11.607Z,28.20
2022-08-03T15:56:06.502Z,28.20
2022-08-03T15:59:11.983Z,28.20
2022-08-03T16:02:05.914Z,28.20
2022-08-03T16:04:42.229Z,28.20
2022-08-03T16:07:15.977Z,28.00
2022-08-03T16:09:47.637Z,27.80
2022-08-03T16:12:19.808Z,27.80
2022-08-03T16:14:53.182Z,27.80
2022-08-03T16:17:26.173Z,27.80
2022-08-03T16:19:57.918Z,27.80
2022-08-03T16:22:29.489Z,27.60
2022-08-03T16:25:02.599Z,27.50
2022-08-03T16:28:03.221Z,27.50
2022-08-03T16:30:41.389Z,27.50
2022-08-03T16:33:17.213Z,27.50
2022-08-03T16:35:51.451Z,27.50
2022-08-03T16:39:04.642Z,27.50
2022-08-03T16:42:00.575Z,27.50
2022-08-03T16:44:34.370Z,27.40
2022-08-03T16:47:21.813Z,27.30
2022-08-03T16:49:56.857Z,27.20
2022-08-03T16:52:31.055Z,27.20
2022-08-03T16:55:05.229Z,27.20
2022-08-03T16:58:03.756Z,27.30
2022-08-03T17:00:58.210Z,27.20
2022-08-03T17:03:42.757Z,27.20
2022-08-03T17:06:34.069Z,27.20
2022-08-03T17:09:15.262Z,27.20
2022-08-03T17:11:52.094Z,27.20
2022-08-03T17:14:31.490Z,27.10
2022-08-03T17:17:06.863Z,27.10
2022-08-03T17:19:47.139Z,27.10
2022-08-03T17:22:29.071Z,27.10
2022-08-03T17:25:39.718Z,27.10
2022-08-03T17:28:51.423Z,27.00
2022-08-03T17:31:22.843Z,27.10
2022-08-03T17:34:41.431Z,27.10
2022-08-03T17:37:49.852Z,27.10
2022-08-03T17:40:12.398Z,27.10
2022-08-03T17:42:50.528Z,27.10
2022-08-03T17:45:22.863Z,27.00
2022-08-03T17:47:57.902Z,27.10
2022-08-03T17:50:43.824Z,27.00
2022-08-03T17:53:24.343Z,27.00
2022-08-03T17:56:44.414Z,27.10
2022-08-03T17:59:52.181Z,27.00
2022-08-03T18:03:03.259Z,27.10
2022-08-03T18:06:11.246Z,27.00
2022-08-03T18:08:32.735Z,27.10
2022-08-03T18:11:22.795Z,26.90
2022-08-03T18:14:35.674Z,26.90
2022-08-03T18:17:17.162Z,27.00
2022-08-03T18:20:02.104Z,27.00
2022-08-03T18:22:36.784Z,27.00
2022-08-03T18:25:13.376Z,27.00
2022-08-03T18:27:47.463Z,27.00
2022-08-03T18:30:19.098Z,26.90
2022-08-03T18:33:00.986Z,26.90
2022-08-03T18:35:53.731Z,27.00
2022-08-03T18:38:27.075Z,27.00
2022-08-03T18:40:58.562Z,27.00
2022-08-03T18:43:47.134Z,27.00
2022-08-03T18:46:44.037Z,27.00
2022-08-03T18:56:25.193Z,27.10
2022-08-03T18:59:09.580Z,27.00
2022-08-03T19:01:58.332Z,26.90
2022-08-03T19:04:44.234Z,26.90
2022-08-03T19:07:23.389Z,26.80
2022-08-03T19:10:03.557Z,26.80
2022-08-03T19:12:44.814Z,26.80
2022-08-03T19:15:16.847Z,26.80
2022-08-03T19:17:58.663Z,26.80
2022-08-03T19:20:32.392Z,26.70
2022-08-03T19:23:03.671Z,26.70
2022-08-03T19:25:41.433Z,26.80
2022-08-03T19:28:12.767Z,26.70
2022-08-03T19:30:46.496Z,26.70
2022-08-03T19:33:29.985Z,26.70
2022-08-03T19:36:02.239Z,26.80
2022-08-03T19:38:35.018Z,26.70
2022-08-03T19:41:10.380Z,26.70
2022-08-03T19:43:53.462Z,26.70
2022-08-03T19:46:31.680Z,26.80
2022-08-03T19:49:14.463Z,26.70
2022-08-03T19:52:01.797Z,26.70
2022-08-03T19:54:52.760Z,26.70
2022-08-03T19:57:30.433Z,26.70
2022-08-03T20:02:53.919Z,26.70
2022-08-03T20:05:25.681Z,26.70
2022-08-03T20:08:00.741Z,26.70
2022-08-03T20:10:33.185Z,26.80
2022-08-03T20:13:05.987Z,26.70
2022-08-03T20:15:41.256Z,26.70
2022-08-03T20:21:15.301Z,26.80
2022-08-03T20:24:02.799Z,26.90
2022-08-03T20:26:41.822Z,26.80
2022-08-03T20:29:15.343Z,26.80
2022-08-03T20:31:46.819Z,26.80
2022-08-03T20:34:18.379Z,26.80
2022-08-03T20:36:49.648Z,26.80
2022-08-03T20:39:21.099Z,26.80
2022-08-03T20:41:52.706Z,26.80
2022-08-03T20:44:27.395Z,26.80
2022-08-03T20:47:00.655Z,26.70
2022-08-03T20:49:46.281Z,26.70
2022-08-03T20:52:18.683Z,26.60
2022-08-03T20:54:51.162Z,26.60
2022-08-03T20:57:23.521Z,26.60
2022-08-03T20:59:55.981Z,26.70
2022-08-03T21:02:29.976Z,26.60
2022-08-03T21:05:08.625Z,26.50
2022-08-03T21:08:05.391Z,26.50
2022-08-03T21:10:42.137Z,26.50
2022-08-03T21:13:00.669Z,27.00
2022-08-03T21:13:03.270Z,26.70
2022-08-03T21:13:28.951Z,26.50
2022-08-03T21:16:13.825Z,26.50
2022-08-03T21:18:51.195Z,26.50
2022-08-03T21:21:28.376Z,26.40
2022-08-03T21:24:02.437Z,26.50
2022-08-03T21:26:36.219Z,26.40
2022-08-03T21:29:08.009Z,26.50
2022-08-03T21:31:42.302Z,26.40
2022-08-03T21:34:13.586Z,26.40
2022-08-03T21:36:44.890Z,26.50
2022-08-03T21:39:17.518Z,26.50
2022-08-03T21:41:49.407Z,26.40
2022-08-03T21:44:25.130Z,26.50
2022-08-03T21:47:02.271Z,26.40
2022-08-03T21:50:07.205Z,26.30
2022-08-03T21:52:28.160Z,26.30
2022-08-03T21:55:04.962Z,26.40
2022-08-03T21:57:37.699Z,26.40
2022-08-03T22:00:29.086Z,26.40
2022-08-03T22:03:15.352Z,26.30
2022-08-03T22:05:48.839Z,26.40
2022-08-03T22:08:20.367Z,26.30
2022-08-03T22:10:51.657Z,26.40
2022-08-03T22:13:44.079Z,26.30
2022-08-03T22:16:16.469Z,26.30
2022-08-03T22:18:48.641Z,26.30
2022-08-03T22:21:27.575Z,26.40
2022-08-03T22:24:01.959Z,26.40
2022-08-03T22:26:35.531Z,26.30
2022-08-03T22:29:10.015Z,26.40
2022-08-03T22:31:58.439Z,26.40
2022-08-03T22:34:31.598Z,26.40
2022-08-03T22:37:06.700Z,26.40
2022-08-03T22:39:38.270Z,26.50
2022-08-03T22:42:10.445Z,26.50
2022-08-03T22:44:42.042Z,26.50
2022-08-03T22:47:16.142Z,26.50
2022-08-03T22:50:33.569Z,26.50
2022-08-03T22:52:47.389Z,26.50
2022-08-03T22:55:18.981Z,26.50
2022-08-03T23:00:53.120Z,26.50
2022-08-03T23:03:58.714Z,26.50
2022-08-03T23:06:28.309Z,26.60
2022-08-03T23:08:59.926Z,26.50
2022-08-03T23:11:31.355Z,26.70
2022-08-03T23:14:04.309Z,26.80
2022-08-03T23:16:40.626Z,26.70
2022-08-03T23:19:17.098Z,26.80
2022-08-03T23:22:04.094Z,26.80
2022-08-03T23:24:40.935Z,26.90
2022-08-03T23:27:12.302Z,26.90
2022-08-03T23:29:45.737Z,27.00
2022-08-03T23:32:17.769Z,26.90
2022-08-03T23:35:09.218Z,26.90
2022-08-03T23:38:04.784Z,27.00
2022-08-03T23:40:33.872Z,27.00
2022-08-03T23:43:05.854Z,27.00
2022-08-03T23:45:38.325Z,26.90
2022-08-03T23:48:09.622Z,27.00
2022-08-03T23:50:48.306Z,27.10
2022-08-03T23:53:40.199Z,27.10
2022-08-03T23:56:31.442Z,27.20
2022-08-03T23:59:16.452Z,27.30
